sensor_id;sensor_type;location;lat;lon;timestamp;pressure;altitude;pressure_sealevel;temperature;humidity
25238;BME280;13185;50.872;5.306;2022-10-31T00:01:35;101733.72;;;13.33;100.00
25238;BME280;13185;50.872;5.306;2022-10-31T00:04:01;101741.91;;;13.32;100.00
25238;BME280;13185;50.872;5.306;2022-10-31T00:06:26;101738.34;;;13.31;100.00
25238;BME280;13185;50.872;5.306;2022-10-31T00:08:55;101742.75;;;13.32;100.00
25238;BME280;13185;50.872;5.306;2022-10-31T00:11:21;101732.00;;;13.32;100.00
25238;BME280;13185;50.872;5.306;2022-10-31T00:13:47;101729.19;;;13.34;100.00
25238;BME280;13185;50.872;5.306;2022-10-31T00:16:14;101731.13;;;13.32;100.00
25238;BME280;13185;50.872;5.306;2022-10-31T00:18:40;101725.84;;;13.30;100.00
25238;BME280;13185;50.872;5.306;2022-10-31T00:21:06;101725.94;;;13.28;100.00
25238;BME280;13185;50.872;5.306;2022-10-31T00:23:31;101722.47;;;13.26;100.00
25238;BME280;13185;50.872;5.306;2022-10-31T00:26:01;101724.47;;;13.23;100.00
25238;BME280;13185;50.872;5.306;2022-10-31T00:28:27;101727.28;;;13.21;100.00
25238;BME280;13185;50.872;5.306;2022-10-31T00:30:52;101726.41;;;13.21;100.00
25238;BME280;13185;50.872;5.306;2022-10-31T00:33:18;101730.84;;;13.22;100.00
25238;BME280;13185;50.872;5.306;2022-10-31T00:35:49;101728.13;;;13.22;100.00
25238;BME280;13185;50.872;5.306;2022-10-31T00:38:15;101730.94;;;13.20;100.00
25238;BME280;13185;50.872;5.306;2022-10-31T00:40:41;101731.03;;;13.19;100.00
25238;BME280;13185;50.872;5.306;2022-10-31T00:43:06;101718.59;;;13.16;100.00
25238;BME280;13185;50.872;5.306;2022-10-31T00:45:31;101716.97;;;13.14;100.00
25238;BME280;13185;50.872;5.306;2022-10-31T00:47:57;101722.41;;;13.12;100.00
25238;BME280;13185;50.872;5.306;2022-10-31T00:50:22;101726.94;;;13.12;100.00
25238;BME280;13185;50.872;5.306;2022-10-31T00:52:48;101732.31;;;13.12;100.00
25238;BME280;13185;50.872;5.306;2022-10-31T00:55:13;101726.06;;;13.11;100.00
25238;BME280;13185;50.872;5.306;2022-10-31T00:57:40;101721.66;;;13.10;100.00
25238;BME280;13185;50.872;5.306;2022-10-31T01:00:05;101722.50;;;13.11;100.00
25238;BME280;13185;50.872;5.306;2022-10-31T01:02:31;101721.66;;;13.10;100.00
25238;BME280;13185;50.872;5.306;2022-10-31T01:04:57;101727.13;;;13.09;100.00
25238;BME280;13185;50.872;5.306;2022-10-31T01:07:22;101728.09;;;13.08;100.00
25238;BME280;13185;50.872;5.306;2022-10-31T01:09:48;101735.50;;;13.04;100.00
25238;BME280;13185;50.872;5.306;2022-10-31T01:12:13;101723.00;;;13.03;100.00
25238;BME280;13185;50.872;5.306;2022-10-31T01:14:43;101733.09;;;12.99;100.00
25238;BME280;13185;50.872;5.306;2022-10-31T01:17:08;101730.59;;;12.96;100.00
25238;BME280;13185;50.872;5.306;2022-10-31T01:19:34;101731.66;;;12.94;100.00
25238;BME280;13185;50.872;5.306;2022-10-31T01:21:59;101722.88;;;12.90;100.00
25238;BME280;13185;50.872;5.306;2022-10-31T01:24:28;101731.03;;;12.89;100.00
25238;BME280;13185;50.872;5.306;2022-10-31T01:26:53;101730.38;;;12.85;100.00
25238;BME280;13185;50.872;5.306;2022-10-31T01:29:19;101720.72;;;12.81;100.00
25238;BME280;13185;50.872;5.306;2022-10-31T01:31:44;101723.53;;;12.80;100.00
25238;BME280;13185;50.872;5.306;2022-10-31T01:34:15;101727.28;;;12.77;100.00
25238;BME280;13185;50.872;5.306;2022-10-31T01:36:42;101732.94;;;12.73;100.00
25238;BME280;13185;50.872;5.306;2022-10-31T01:39:11;101718.03;;;12.67;100.00
25238;BME280;13185;50.872;5.306;2022-10-31T01:41:39;101711.00;;;12.64;100.00
25238;BME280;13185;50.872;5.306;2022-10-31T01:46:50;101709.72;;;12.56;100.00
25238;BME280;13185;50.872;5.306;2022-10-31T01:49:38;101714.59;;;12.49;100.00
25238;BME280;13185;50.872;5.306;2022-10-31T01:52:30;101716.50;;;12.47;100.00
25238;BME280;13185;50.872;5.306;2022-10-31T01:55:11;101718.44;;;12.45;100.00
25238;BME280;13185;50.872;5.306;2022-10-31T01:57:38;101714.09;;;12.42;100.00
25238;BME280;13185;50.872;5.306;2022-10-31T02:00:09;101731.19;;;12.41;100.00
25238;BME280;13185;50.872;5.306;2022-10-31T02:02:41;101722.34;;;12.39;100.00
25238;BME280;13185;50.872;5.306;2022-10-31T02:05:14;101718.88;;;12.37;100.00
25238;BME280;13185;50.872;5.306;2022-10-31T02:10:32;101717.22;;;12.35;100.00
25238;BME280;13185;50.872;5.306;2022-10-31T02:13:01;101713.88;;;12.31;100.00
25238;BME280;13185;50.872;5.306;2022-10-31T02:15:28;101716.72;;;12.28;100.00
25238;BME280;13185;50.872;5.306;2022-10-31T02:17:55;101714.97;;;12.27;100.00
25238;BME280;13185;50.872;5.306;2022-10-31T02:20:23;101717.09;;;12.22;100.00
25238;BME280;13185;50.872;5.306;2022-10-31T02:31:29;101711.47;;;12.11;100.00
25238;BME280;13185;50.872;5.306;2022-10-31T02:34:07;101713.44;;;12.07;100.00
25238;BME280;13185;50.872;5.306;2022-10-31T02:36:59;101707.28;;;12.05;100.00
25238;BME280;13185;50.872;5.306;2022-10-31T02:39:35;101696.72;;;12.02;100.00
25238;BME280;13185;50.872;5.306;2022-10-31T02:42:17;101694.13;;;12.01;100.00
25238;BME280;13185;50.872;5.306;2022-10-31T02:44:51;101694.28;;;11.98;100.00
25238;BME280;13185;50.872;5.306;2022-10-31T02:47:28;101679.22;;;11.95;100.00
25238;BME280;13185;50.872;5.306;2022-10-31T02:50:04;101685.72;;;11.91;100.00
25238;BME280;13185;50.872;5.306;2022-10-31T02:52:33;101690.31;;;11.89;100.00
25238;BME280;13185;50.872;5.306;2022-10-31T02:58:14;101674.25;;;11.88;100.00
25238;BME280;13185;50.872;5.306;2022-10-31T03:03:34;101671.75;;;11.84;100.00
25238;BME280;13185;50.872;5.306;2022-10-31T03:06:39;101670.03;;;11.83;100.00
25238;BME280;13185;50.872;5.306;2022-10-31T03:09:17;101668.41;;;11.81;100.00
25238;BME280;13185;50.872;5.306;2022-10-31T03:14:41;101672.09;;;11.78;100.00
25238;BME280;13185;50.872;5.306;2022-10-31T03:17:14;101660.63;;;11.75;100.00
25238;BME280;13185;50.872;5.306;2022-10-31T03:19:45;101665.13;;;11.74;100.00
25238;BME280;13185;50.872;5.306;2022-10-31T03:22:19;101667.16;;;11.71;100.00
25238;BME280;13185;50.872;5.306;2022-10-31T03:24:47;101661.88;;;11.69;100.00
25238;BME280;13185;50.872;5.306;2022-10-31T03:27:18;101665.50;;;11.68;100.00
25238;BME280;13185;50.872;5.306;2022-10-31T03:29:46;101663.84;;;11.66;100.00
25238;BME280;13185;50.872;5.306;2022-10-31T03:32:27;101662.28;;;11.62;100.00
25238;BME280;13185;50.872;5.306;2022-10-31T03:34:57;101666.88;;;11.60;100.00
25238;BME280;13185;50.872;5.306;2022-10-31T03:37:26;101666.13;;;11.57;100.00
25238;BME280;13185;50.872;5.306;2022-10-31T03:39:53;101674.19;;;11.57;100.00
25238;BME280;13185;50.872;5.306;2022-10-31T03:42:28;101672.50;;;11.55;100.00
25238;BME280;13185;50.872;5.306;2022-10-31T03:44:58;101665.50;;;11.52;100.00
25238;BME280;13185;50.872;5.306;2022-10-31T03:47:26;101666.53;;;11.50;100.00
25238;BME280;13185;50.872;5.306;2022-10-31T03:49:52;101667.59;;;11.47;100.00
25238;BME280;13185;50.872;5.306;2022-10-31T03:52:43;101664.19;;;11.44;100.00
25238;BME280;13185;50.872;5.306;2022-10-31T04:00:15;101667.31;;;11.36;100.00
25238;BME280;13185;50.872;5.306;2022-10-31T04:02:55;101674.56;;;11.34;100.00
25238;BME280;13185;50.872;5.306;2022-10-31T04:05:27;101666.69;;;11.31;100.00
25238;BME280;13185;50.872;5.306;2022-10-31T04:08:00;101671.28;;;11.29;100.00
25238;BME280;13185;50.872;5.306;2022-10-31T04:10:31;101667.63;;;11.30;100.00
25238;BME280;13185;50.872;5.306;2022-10-31T04:13:01;101663.22;;;11.29;100.00
25238;BME280;13185;50.872;5.306;2022-10-31T04:15:35;101666.94;;;11.26;100.00
25238;BME280;13185;50.872;5.306;2022-10-31T04:18:03;101665.28;;;11.24;100.00
25238;BME280;13185;50.872;5.306;2022-10-31T04:20:38;101668.13;;;11.21;100.00
25238;BME280;13185;50.872;5.306;2022-10-31T04:23:05;101668.31;;;11.18;100.00
25238;BME280;13185;50.872;5.306;2022-10-31T04:25:39;101672.03;;;11.15;100.00
25238;BME280;13185;50.872;5.306;2022-10-31T04:28:04;101673.03;;;11.13;100.00
25238;BME280;13185;50.872;5.306;2022-10-31T04:30:30;101671.50;;;11.09;100.00
25238;BME280;13185;50.872;5.306;2022-10-31T04:32:55;101664.56;;;11.05;100.00
25238;BME280;13185;50.872;5.306;2022-10-31T04:35:22;101665.56;;;11.02;100.00
25238;BME280;13185;50.872;5.306;2022-10-31T04:37:48;101666.69;;;10.98;100.00
25238;BME280;13185;50.872;5.306;2022-10-31T04:40:13;101666.78;;;10.96;100.00
25238;BME280;13185;50.872;5.306;2022-10-31T04:43:11;101663.38;;;10.93;100.00
25238;BME280;13185;50.872;5.306;2022-10-31T04:45:37;101667.09;;;10.90;100.00
25238;BME280;13185;50.872;5.306;2022-10-31T04:48:03;101660.00;;;10.89;100.00
25238;BME280;13185;50.872;5.306;2022-10-31T04:50:32;101653.84;;;10.87;100.00
25238;BME280;13185;50.872;5.306;2022-10-31T04:52:57;101657.59;;;10.85;100.00
25238;BME280;13185;50.872;5.306;2022-10-31T04:55:26;101661.22;;;10.84;100.00
25238;BME280;13185;50.872;5.306;2022-10-31T04:58:17;101653.41;;;10.79;100.00
25238;BME280;13185;50.872;5.306;2022-10-31T05:00:43;101647.41;;;10.74;100.00
25238;BME280;13185;50.872;5.306;2022-10-31T05:03:09;101654.59;;;10.74;100.00
25238;BME280;13185;50.872;5.306;2022-10-31T05:05:34;101652.84;;;10.73;100.00
25238;BME280;13185;50.872;5.306;2022-10-31T05:08:02;101655.59;;;10.71;100.00
25238;BME280;13185;50.872;5.306;2022-10-31T05:10:30;101652.16;;;10.69;100.00
25238;BME280;13185;50.872;5.306;2022-10-31T05:13:00;101648.69;;;10.67;100.00
25238;BME280;13185;50.872;5.306;2022-10-31T05:15:44;101643.31;;;10.67;100.00
25238;BME280;13185;50.872;5.306;2022-10-31T05:18:28;101646.16;;;10.64;100.00
25238;BME280;13185;50.872;5.306;2022-10-31T05:20:54;101641.75;;;10.63;100.00
25238;BME280;13185;50.872;5.306;2022-10-31T05:23:26;101637.31;;;10.62;100.00
25238;BME280;13185;50.872;5.306;2022-10-31T05:25:52;101642.66;;;10.62;100.00
25238;BME280;13185;50.872;5.306;2022-10-31T05:28:18;101636.63;;;10.58;100.00
25238;BME280;13185;50.872;5.306;2022-10-31T05:30:43;101629.69;;;10.54;100.00
25238;BME280;13185;50.872;5.306;2022-10-31T05:33:12;101636.63;;;10.58;100.00
25238;BME280;13185;50.872;5.306;2022-10-31T05:36:01;101630.28;;;10.59;100.00
25238;BME280;13185;50.872;5.306;2022-10-31T05:38:35;101621.22;;;10.62;100.00
25238;BME280;13185;50.872;5.306;2022-10-31T05:41:09;101631.81;;;10.65;100.00
25238;BME280;13185;50.872;5.306;2022-10-31T05:43:35;101621.16;;;10.63;100.00
25238;BME280;13185;50.872;5.306;2022-10-31T05:46:04;101617.53;;;10.64;100.00
25238;BME280;13185;50.872;5.306;2022-10-31T05:48:55;101621.06;;;10.65;100.00
25238;BME280;13185;50.872;5.306;2022-10-31T05:51:39;101622.06;;;10.62;100.00
25238;BME280;13185;50.872;5.306;2022-10-31T05:54:07;101616.72;;;10.62;100.00
25238;BME280;13185;50.872;5.306;2022-10-31T05:56:32;101618.53;;;10.62;100.00
25238;BME280;13185;50.872;5.306;2022-10-31T05:58:59;101615.94;;;10.60;100.00
25238;BME280;13185;50.872;5.306;2022-10-31T06:01:25;101621.28;;;10.60;100.00
25238;BME280;13185;50.872;5.306;2022-10-31T06:03:51;101618.69;;;10.59;100.00
25238;BME280;13185;50.872;5.306;2022-10-31T06:06:18;101618.78;;;10.57;100.00
25238;BME280;13185;50.872;5.306;2022-10-31T06:08:44;101617.13;;;10.55;100.00
25238;BME280;13185;50.872;5.306;2022-10-31T06:11:17;101612.66;;;10.55;100.00
25238;BME280;13185;50.872;5.306;2022-10-31T06:14:04;101615.41;;;10.54;100.00
25238;BME280;13185;50.872;5.306;2022-10-31T06:16:51;101614.59;;;10.52;100.00
25238;BME280;13185;50.872;5.306;2022-10-31T06:19:55;101618.41;;;10.48;100.00
25238;BME280;13185;50.872;5.306;2022-10-31T06:22:23;101614.94;;;10.46;100.00
25238;BME280;13185;50.872;5.306;2022-10-31T06:24:49;101610.59;;;10.43;100.00
25238;BME280;13185;50.872;5.306;2022-10-31T06:27:40;101612.44;;;10.43;100.00
25238;BME280;13185;50.872;5.306;2022-10-31T06:30:12;101609.78;;;10.41;100.00
25238;BME280;13185;50.872;5.306;2022-10-31T06:32:38;101608.06;;;10.40;100.00
25238;BME280;13185;50.872;5.306;2022-10-31T06:35:03;101601.84;;;10.39;100.00
25238;BME280;13185;50.872;5.306;2022-10-31T06:37:32;101618.78;;;10.40;100.00
25238;BME280;13185;50.872;5.306;2022-10-31T06:40:04;101617.94;;;10.39;100.00
25238;BME280;13185;50.872;5.306;2022-10-31T06:42:37;101623.28;;;10.39;100.00
25238;BME280;13185;50.872;5.306;2022-10-31T06:45:03;101636.69;;;10.39;100.00
25238;BME280;13185;50.872;5.306;2022-10-31T06:47:57;101628.91;;;10.35;100.00
25238;BME280;13185;50.872;5.306;2022-10-31T06:50:32;101626.22;;;10.35;100.00
25238;BME280;13185;50.872;5.306;2022-10-31T06:52:58;101627.94;;;10.36;100.00
25238;BME280;13185;50.872;5.306;2022-10-31T06:55:25;101633.22;;;10.37;100.00
25238;BME280;13185;50.872;5.306;2022-10-31T06:58:09;101631.50;;;10.36;100.00
25238;BME280;13185;50.872;5.306;2022-10-31T07:00:37;101623.53;;;10.35;100.00
25238;BME280;13185;50.872;5.306;2022-10-31T07:03:09;101624.41;;;10.35;100.00
25238;BME280;13185;50.872;5.306;2022-10-31T07:05:35;101629.78;;;10.35;100.00
25238;BME280;13185;50.872;5.306;2022-10-31T07:08:04;101628.91;;;10.35;100.00
25238;BME280;13185;50.872;5.306;2022-10-31T07:10:31;101626.22;;;10.35;100.00
25238;BME280;13185;50.872;5.306;2022-10-31T07:13:03;101617.16;;;10.37;100.00
25238;BME280;13185;50.872;5.306;2022-10-31T07:15:36;101621.56;;;10.38;100.00
25238;BME280;13185;50.872;5.306;2022-10-31T07:18:03;101620.47;;;10.43;100.00
25238;BME280;13185;50.872;5.306;2022-10-31T07:20:30;101636.47;;;10.44;100.00
25238;BME280;13185;50.872;5.306;2022-10-31T07:22:56;101635.44;;;10.47;100.00
25238;BME280;13185;50.872;5.306;2022-10-31T07:25:23;101637.97;;;10.50;100.00
25238;BME280;13185;50.872;5.306;2022-10-31T07:28:21;101626.13;;;10.54;100.00
25238;BME280;13185;50.872;5.306;2022-10-31T07:30:55;101631.34;;;10.57;100.00
25238;BME280;13185;50.872;5.306;2022-10-31T07:33:22;101637.31;;;10.62;100.00
25238;BME280;13185;50.872;5.306;2022-10-31T07:36:06;101630.84;;;10.66;100.00
25238;BME280;13185;50.872;5.306;2022-10-31T07:38:32;101619.00;;;10.70;100.00
25238;BME280;13185;50.872;5.306;2022-10-31T07:41:02;101612.53;;;10.74;100.00
25238;BME280;13185;50.872;5.306;2022-10-31T07:43:30;101610.56;;;10.78;100.00
25238;BME280;13185;50.872;5.306;2022-10-31T07:46:15;101611.31;;;10.80;100.00
25238;BME280;13185;50.872;5.306;2022-10-31T07:48:47;101617.47;;;10.82;100.00
25238;BME280;13185;50.872;5.306;2022-10-31T07:51:31;101617.34;;;10.85;100.00
25238;BME280;13185;50.872;5.306;2022-10-31T07:54:28;101621.56;;;10.89;100.00
25238;BME280;13185;50.872;5.306;2022-10-31T07:56:54;101619.66;;;10.91;100.00
25238;BME280;13185;50.872;5.306;2022-10-31T07:59:19;101609.66;;;10.94;100.00
25238;BME280;13185;50.872;5.306;2022-10-31T08:01:45;101616.66;;;10.97;100.00
25238;BME280;13185;50.872;5.306;2022-10-31T08:04:29;101604.78;;;11.01;100.00
25238;BME280;13185;50.872;5.306;2022-10-31T08:07:13;101600.84;;;11.08;100.00
25238;BME280;13185;50.872;5.306;2022-10-31T08:09:43;101598.59;;;11.16;100.00
25238;BME280;13185;50.872;5.306;2022-10-31T08:12:18;101595.41;;;11.25;100.00
25238;BME280;13185;50.872;5.306;2022-10-31T08:14:43;101599.38;;;11.34;100.00
25238;BME280;13185;50.872;5.306;2022-10-31T08:17:10;101607.09;;;11.40;100.00
25238;BME280;13185;50.872;5.306;2022-10-31T08:19:44;101588.72;;;11.48;100.00
25238;BME280;13185;50.872;5.306;2022-10-31T08:22:12;101595.31;;;11.59;100.00
25238;BME280;13185;50.872;5.306;2022-10-31T08:24:38;101602.84;;;11.68;100.00
25238;BME280;13185;50.872;5.306;2022-10-31T08:27:03;101598.72;;;11.76;100.00
25238;BME280;13185;50.872;5.306;2022-10-31T08:29:29;101594.78;;;11.83;100.00
25238;BME280;13185;50.872;5.306;2022-10-31T08:31:57;101584.34;;;11.93;100.00
25238;BME280;13185;50.872;5.306;2022-10-31T08:34:58;101588.31;;;12.02;100.00
25238;BME280;13185;50.872;5.306;2022-10-31T08:37:54;101573.47;;;12.10;100.00
25238;BME280;13185;50.872;5.306;2022-10-31T08:40:25;101574.91;;;12.16;100.00
25238;BME280;13185;50.872;5.306;2022-10-31T08:43:11;101567.34;;;12.23;100.00
25238;BME280;13185;50.872;5.306;2022-10-31T08:45:37;101565.13;;;12.29;100.00
25238;BME280;13185;50.872;5.306;2022-10-31T08:48:10;101557.38;;;12.39;100.00
25238;BME280;13185;50.872;5.306;2022-10-31T08:50:37;101550.47;;;12.49;100.00
25238;BME280;13185;50.872;5.306;2022-10-31T08:53:05;101554.53;;;12.56;100.00
25238;BME280;13185;50.872;5.306;2022-10-31T08:55:34;101546.09;;;12.62;100.00
25238;BME280;13185;50.872;5.306;2022-10-31T08:58:04;101539.44;;;12.68;100.00
25238;BME280;13185;50.872;5.306;2022-10-31T09:00:39;101536.28;;;12.76;100.00
25238;BME280;13185;50.872;5.306;2022-10-31T09:03:13;101523.19;;;12.84;100.00
25238;BME280;13185;50.872;5.306;2022-10-31T09:05:41;101525.47;;;12.90;100.00
25238;BME280;13185;50.872;5.306;2022-10-31T09:08:11;101518.00;;;12.95;100.00
25238;BME280;13185;50.872;5.306;2022-10-31T09:10:37;101515.66;;;13.03;100.00
25238;BME280;13185;50.872;5.306;2022-10-31T09:13:06;101518.06;;;13.08;100.00
25238;BME280;13185;50.872;5.306;2022-10-31T09:15:51;101512.34;;;13.12;100.00
25238;BME280;13185;50.872;5.306;2022-10-31T09:18:21;101504.84;;;13.17;100.00
25238;BME280;13185;50.872;5.306;2022-10-31T09:20:59;101491.97;;;13.22;100.00
25238;BME280;13185;50.872;5.306;2022-10-31T09:23:26;101485.31;;;13.28;100.00
25238;BME280;13185;50.872;5.306;2022-10-31T09:25:53;101489.44;;;13.34;100.00
25238;BME280;13185;50.872;5.306;2022-10-31T09:28:40;101492.69;;;13.39;100.00
25238;BME280;13185;50.872;5.306;2022-10-31T09:31:11;101497.88;;;13.42;100.00
25238;BME280;13185;50.872;5.306;2022-10-31T09:33:49;101487.66;;;13.47;100.00
25238;BME280;13185;50.872;5.306;2022-10-31T09:36:34;101492.94;;;13.48;100.00
25238;BME280;13185;50.872;5.306;2022-10-31T09:39:02;101494.69;;;13.49;100.00
25238;BME280;13185;50.872;5.306;2022-10-31T09:41:58;101485.50;;;13.52;100.00
25238;BME280;13185;50.872;5.306;2022-10-31T09:44:58;101492.34;;;13.57;100.00
25238;BME280;13185;50.872;5.306;2022-10-31T09:47:40;101484.69;;;13.64;100.00
25238;BME280;13185;50.872;5.306;2022-10-31T09:50:42;101481.25;;;13.75;100.00
25238;BME280;13185;50.872;5.306;2022-10-31T09:56:02;101480.00;;;13.93;100.00
25238;BME280;13185;50.872;5.306;2022-10-31T09:58:32;101490.78;;;14.06;100.00
25238;BME280;13185;50.872;5.306;2022-10-31T10:01:01;101491.03;;;14.15;100.00
25238;BME280;13185;50.872;5.306;2022-10-31T10:03:31;101483.91;;;14.27;100.00
25238;BME280;13185;50.872;5.306;2022-10-31T10:06:14;101480.25;;;14.41;100.00
25238;BME280;13185;50.872;5.306;2022-10-31T10:09:24;101478.44;;;14.54;100.00
25238;BME280;13185;50.872;5.306;2022-10-31T10:15:36;101481.41;;;14.75;100.00
25238;BME280;13185;50.872;5.306;2022-10-31T10:21:01;101478.13;;;14.95;100.00
25238;BME280;13185;50.872;5.306;2022-10-31T10:28:40;101459.97;;;15.21;100.00
25238;BME280;13185;50.872;5.306;2022-10-31T10:34:01;101448.16;;;15.35;100.00
25238;BME280;13185;50.872;5.306;2022-10-31T10:36:35;101436.66;;;15.44;100.00
25238;BME280;13185;50.872;5.306;2022-10-31T10:39:08;101435.31;;;15.50;100.00
25238;BME280;13185;50.872;5.306;2022-10-31T10:41:39;101437.22;;;15.61;100.00
25238;BME280;13185;50.872;5.306;2022-10-31T10:44:10;101449.16;;;15.69;100.00
25238;BME280;13185;50.872;5.306;2022-10-31T10:46:51;101451.41;;;15.75;100.00
25238;BME280;13185;50.872;5.306;2022-10-31T10:49:45;101448.09;;;15.83;100.00
25238;BME280;13185;50.872;5.306;2022-10-31T10:58:01;101434.59;;;15.94;100.00
25238;BME280;13185;50.872;5.306;2022-10-31T11:00:32;101423.56;;;15.97;100.00
25238;BME280;13185;50.872;5.306;2022-10-31T11:02:59;101407.81;;;16.02;100.00
25238;BME280;13185;50.872;5.306;2022-10-31T11:08:05;101405.97;;;16.14;100.00
25238;BME280;13185;50.872;5.306;2022-10-31T11:10:31;101390.59;;;16.14;100.00
25238;BME280;13185;50.872;5.306;2022-10-31T11:13:21;101381.13;;;16.20;100.00
25238;BME280;13185;50.872;5.306;2022-10-31T11:15:57;101378.91;;;16.25;100.00
25238;BME280;13185;50.872;5.306;2022-10-31T11:18:26;101370.69;;;16.27;100.00
25238;BME280;13185;50.872;5.306;2022-10-31T11:20:54;101354.34;;;16.28;100.00
25238;BME280;13185;50.872;5.306;2022-10-31T11:23:22;101354.94;;;16.32;100.00
25238;BME280;13185;50.872;5.306;2022-10-31T11:28:20;101349.50;;;16.43;100.00
25238;BME280;13185;50.872;5.306;2022-10-31T11:30:48;101338.31;;;16.48;100.00
25238;BME280;13185;50.872;5.306;2022-10-31T11:33:19;101348.88;;;16.51;100.00
25238;BME280;13185;50.872;5.306;2022-10-31T11:35:47;101341.50;;;16.53;100.00
25238;BME280;13185;50.872;5.306;2022-10-31T11:38:21;101335.81;;;16.56;100.00
25238;BME280;13185;50.872;5.306;2022-10-31T11:40:53;101331.88;;;16.60;100.00
25238;BME280;13185;50.872;5.306;2022-10-31T11:43:20;101317.34;;;16.61;100.00
25238;BME280;13185;50.872;5.306;2022-10-31T11:45:46;101312.94;;;16.60;100.00
25238;BME280;13185;50.872;5.306;2022-10-31T11:48:19;101308.38;;;16.60;100.00
25238;BME280;13185;50.872;5.306;2022-10-31T11:51:04;101308.38;;;16.60;100.00
25238;BME280;13185;50.872;5.306;2022-10-31T11:53:33;101301.97;;;16.61;100.00
25238;BME280;13185;50.872;5.306;2022-10-31T11:56:05;101277.34;;;16.64;100.00
25238;BME280;13185;50.872;5.306;2022-10-31T11:58:31;101283.59;;;16.65;100.00
25238;BME280;13185;50.872;5.306;2022-10-31T12:00:57;101279.19;;;16.64;100.00
25238;BME280;13185;50.872;5.306;2022-10-31T12:03:26;101272.78;;;16.65;100.00
25238;BME280;13185;50.872;5.306;2022-10-31T12:08:18;101267.63;;;16.73;100.00
25238;BME280;13185;50.872;5.306;2022-10-31T12:13:34;101257.72;;;16.83;100.00
25238;BME280;13185;50.872;5.306;2022-10-31T12:27:19;101206.84;;;17.08;100.00
25238;BME280;13185;50.872;5.306;2022-10-31T12:43:34;101183.28;;;17.29;97.64
25238;BME280;13185;50.872;5.306;2022-10-31T12:46:02;101175.91;;;17.31;97.10
25238;BME280;13185;50.872;5.306;2022-10-31T12:48:38;101160.06;;;17.36;97.17
25238;BME280;13185;50.872;5.306;2022-10-31T12:59:21;101131.38;;;17.64;96.25
25238;BME280;13185;50.872;5.306;2022-10-31T13:01:54;101122.94;;;17.67;95.31
25238;BME280;13185;50.872;5.306;2022-10-31T13:07:04;101110.44;;;17.76;94.82
25238;BME280;13185;50.872;5.306;2022-10-31T13:09:40;101103.00;;;17.78;93.54
25238;BME280;13185;50.872;5.306;2022-10-31T13:12:11;101099.91;;;17.82;93.75
25238;BME280;13185;50.872;5.306;2022-10-31T13:14:44;101090.59;;;17.85;92.90
25238;BME280;13185;50.872;5.306;2022-10-31T13:17:38;101076.03;;;17.86;92.75
25238;BME280;13185;50.872;5.306;2022-10-31T13:22:34;101077.06;;;17.95;92.91
25238;BME280;13185;50.872;5.306;2022-10-31T13:30:16;101071.75;;;18.03;92.61
25238;BME280;13185;50.872;5.306;2022-10-31T13:32:57;101061.19;;;18.09;92.28
25238;BME280;13185;50.872;5.306;2022-10-31T13:35:47;101063.75;;;18.21;92.63
25238;BME280;13185;50.872;5.306;2022-10-31T13:38:24;101066.78;;;18.27;91.62
25238;BME280;13185;50.872;5.306;2022-10-31T13:44:01;101063.75;;;18.40;91.26
25238;BME280;13185;50.872;5.306;2022-10-31T13:48:56;101055.59;;;18.50;90.25
25238;BME280;13185;50.872;5.306;2022-10-31T13:51:28;101048.44;;;18.58;90.28
25238;BME280;13185;50.872;5.306;2022-10-31T13:56:23;101036.41;;;18.70;89.15
25238;BME280;13185;50.872;5.306;2022-10-31T14:01:27;101035.81;;;18.86;87.14
25238;BME280;13185;50.872;5.306;2022-10-31T14:04:02;101022.78;;;18.90;87.15
25238;BME280;13185;50.872;5.306;2022-10-31T14:09:35;101008.13;;;19.00;86.25
25238;BME280;13185;50.872;5.306;2022-10-31T14:12:12;100987.41;;;18.99;85.88
25238;BME280;13185;50.872;5.306;2022-10-31T14:14:49;101003.47;;;18.83;85.94
25238;BME280;13185;50.872;5.306;2022-10-31T14:17:21;100991.50;;;18.76;86.58
25238;BME280;13185;50.872;5.306;2022-10-31T14:22:45;100978.97;;;18.93;86.57
25238;BME280;13185;50.872;5.306;2022-10-31T14:25:33;100971.94;;;19.00;86.10
25238;BME280;13185;50.872;5.306;2022-10-31T14:28:01;100956.88;;;19.06;86.02
25238;BME280;13185;50.872;5.306;2022-10-31T14:30:28;100959.69;;;19.14;86.46
25238;BME280;13185;50.872;5.306;2022-10-31T14:33:16;100947.28;;;19.11;86.00
25238;BME280;13185;50.872;5.306;2022-10-31T14:36:02;100942.44;;;19.05;86.48
25238;BME280;13185;50.872;5.306;2022-10-31T14:41:29;100933.94;;;19.18;87.74
25238;BME280;13185;50.872;5.306;2022-10-31T14:52:29;100915.38;;;19.49;87.23
25238;BME280;13185;50.872;5.306;2022-10-31T14:54:57;100917.47;;;19.55;87.25
25238;BME280;13185;50.872;5.306;2022-10-31T14:57:27;100913.59;;;19.57;86.74
25238;BME280;13185;50.872;5.306;2022-10-31T14:59:58;100914.47;;;19.58;86.27
25238;BME280;13185;50.872;5.306;2022-10-31T15:02:33;100914.16;;;19.61;86.84
25238;BME280;13185;50.872;5.306;2022-10-31T15:05:07;100908.31;;;19.56;86.01
25238;BME280;13185;50.872;5.306;2022-10-31T15:07:33;100908.53;;;19.45;86.09
25238;BME280;13185;50.872;5.306;2022-10-31T15:10:02;100916.59;;;19.37;85.87
25238;BME280;13185;50.872;5.306;2022-10-31T15:12:32;100916.69;;;19.27;86.21
25238;BME280;13185;50.872;5.306;2022-10-31T15:15:14;100902.69;;;19.22;86.56
25238;BME280;13185;50.872;5.306;2022-10-31T15:17:44;100907.88;;;19.15;86.26
25238;BME280;13185;50.872;5.306;2022-10-31T15:20:19;100906.81;;;19.08;86.93